Weather at Ross Airport [CLOSED]

Public forecast

Using degrees Fahrenheit for public forecast. Weather courtesy of forecast.io.

Closest aviation weather report (METAR) to Ross Airport

Closest report is Falcon Field, 6.6 nm (12.2 km) ENE. Retrieved 2021/06/20 09:54 UTC (9 minutes ago):

KFFZ 200954Z AUTO 00000KT 10SM CLR 33/12 A2965 RMK AO2 SLP011 T03280122 TSNO

Closest aviation forecast (TAF) to Ross Airport

Closest forecast is Phoenix Sky Harbor International Airport, 8.1 nm (15.0 km) W. Retrieved 2021/06/20 06:24 UTC (4 hours ago):

TAF KPHX 200522Z 2006/2112 26010KT P6SM SKC FM201000 11005KT P6SM FEW150 FEW250 FM201700 26010KT P6SM FEW150 FEW250 FM201900 27017G25KT P6SM SKC FM210500 26012KT P6SM SKC FM210700 26007KT P6SM SKC